Time;durP1;ratioP1;P1;durP2;ratioP2;P2;SDS_P1;SDS_P2;PMS_P1;PMS_P2;Temp;Humidity;BMP_temperature;BMP_pressure;BME280_temperature;BME280_humidity;BME280_pressure;Samples;Min_cycle;Max_cycle;Signal;HPM_P1;HPM_P2
2023/12/10 00:01:00;;;;;;;109.97;45.03;;;;;;;-142.57;100.00;55907.13;4978409;28;20111;-86
2023/12/10 00:03:46;;;;;;;103.50;42.67;;;;;;;-142.57;100.00;55907.13;4992284;28;20058;-83
2023/12/10 00:06:14;;;;;;;108.53;44.33;;;;;;;-142.57;100.00;55915.22;4989829;28;20034;-82
2023/12/10 00:08:39;;;;;;;102.38;43.13;;;;;;;-142.57;100.00;55925.31;4989658;28;20043;-82
2023/12/10 00:11:05;;;;;;;109.63;43.67;;;;;;;-142.57;100.00;55935.41;4991345;28;20027;-84
2023/12/10 00:13:31;;;;;;;106.97;43.10;;;;;;;-142.57;100.00;55929.34;4985649;28;20019;-83
2023/12/10 00:15:56;;;;;;;109.57;42.97;;;;;;;-142.57;100.00;55911.16;4987637;28;20099;-83
2023/12/10 00:18:22;;;;;;;103.95;44.35;;;;;;;-142.57;100.00;55925.31;4969515;28;20054;-83
2023/12/10 00:20:47;;;;;;;109.93;43.38;;;;;;;-142.57;100.00;55913.19;4973467;28;20046;-84
2023/12/10 00:23:13;;;;;;;111.75;43.83;;;;;;;-142.57;100.00;55882.88;4977477;28;20046;-87
2023/12/10 00:25:39;;;;;;;106.32;41.63;;;;;;;-142.57;100.00;55903.09;4960521;28;20027;-85
2023/12/10 00:28:05;;;;;;;120.47;43.75;;;;;;;-142.57;100.00;55911.16;4977699;28;20047;-85
2023/12/10 00:30:30;;;;;;;108.78;42.42;;;;;;;-142.57;100.00;55929.34;4978204;28;20784;-90
2023/12/10 00:33:03;;;;;;;107.97;42.75;;;;;;;-142.57;100.00;55933.41;4964638;28;20039;-84
2023/12/10 00:35:29;;;;;;;98.53;39.72;;;;;;;-142.57;100.00;55927.34;4983439;28;20034;-87
2023/12/10 00:37:58;;;;;;;98.82;39.45;;;;;;;-142.57;100.00;55927.34;4982727;28;20046;-88
2023/12/10 00:40:23;;;;;;;99.50;40.38;;;;;;;-142.57;100.00;55927.34;4976160;28;20409;-89
2023/12/10 00:42:49;;;;;;;102.85;40.53;;;;;;;-142.57;100.00;55927.34;4976696;28;20037;-86
2023/12/10 00:45:14;;;;;;;103.40;41.45;;;;;;;-142.57;100.00;55890.97;4976894;28;20043;-86
2023/12/10 00:47:40;;;;;;;103.82;39.97;;;;;;;-142.57;100.00;55888.94;4959891;28;20035;-84
2023/12/10 00:50:06;;;;;;;101.55;40.63;;;;;;;-142.57;100.00;55947.53;4976269;28;20102;-85
2023/12/10 00:52:32;;;;;;;101.47;39.13;;;;;;;-142.57;100.00;55882.88;4957946;28;20568;-85
2023/12/10 00:54:57;;;;;;;103.00;39.67;;;;;;;-142.57;100.00;55895.00;4975578;28;20150;-81
2023/12/10 00:57:23;;;;;;;102.70;40.25;;;;;;;-142.57;100.00;55925.31;4976290;28;20038;-84
2023/12/10 00:59:48;;;;;;;101.22;40.17;;;;;;;-142.57;100.00;55886.91;4977169;28;20034;-84
2023/12/10 01:02:14;;;;;;;103.38;38.67;;;;;;;-142.57;100.00;55927.34;4975902;28;20115;-84
2023/12/10 01:04:39;;;;;;;98.88;39.03;;;;;;;-142.57;100.00;55923.28;4975046;28;20545;-88
2023/12/10 01:07:07;;;;;;;101.53;39.10;;;;;;;-142.57;100.00;55931.38;4974887;28;20039;-88
2023/12/10 01:09:34;;;;;;;96.50;37.80;;;;;;;-142.57;100.00;55933.41;4975352;28;20038;-80
2023/12/10 01:12:00;;;;;;;108.25;39.38;;;;;;;-142.57;100.00;55975.84;4975076;28;20034;-84
2023/12/10 01:14:25;;;;;;;93.40;37.13;;;;;;;-142.57;100.00;55923.28;4976344;28;20035;-82
2023/12/10 01:16:51;;;;;;;95.00;36.47;;;;;;;-142.57;100.00;55983.91;4959999;28;20505;-82
2023/12/10 01:19:16;;;;;;;98.20;39.03;;;;;;;-142.57;100.00;55935.41;4983888;28;20043;-79
2023/12/10 01:21:43;;;;;;;92.40;36.22;;;;;;;-142.57;100.00;56006.13;4993016;28;20093;-87
2023/12/10 01:24:15;;;;;;;96.97;38.53;;;;;;;-142.57;100.00;55989.97;4958974;28;20445;-86
2023/12/10 01:26:41;;;;;;;91.50;37.45;;;;;;;-142.57;100.00;55935.41;4975548;28;20113;-86
2023/12/10 01:29:06;;;;;;;91.43;38.05;;;;;;;-142.57;100.00;55975.84;4975565;28;20118;-87
2023/12/10 01:31:35;;;;;;;92.90;36.25;;;;;;;-142.57;100.00;56004.13;4975471;28;20548;-85
2023/12/10 01:34:02;;;;;;;88.38;35.58;;;;;;;-142.57;100.00;55933.41;4975418;28;20035;-88
2023/12/10 01:36:27;;;;;;;88.13;35.55;;;;;;;-142.57;100.00;55941.47;4974946;28;20470;-88
2023/12/10 01:38:53;;;;;;;87.78;35.58;;;;;;;-142.57;100.00;55969.78;4974850;28;20106;-87
2023/12/10 01:41:19;;;;;;;87.78;35.42;;;;;;;-142.57;100.00;55975.84;4974580;28;20129;-88
2023/12/10 01:43:45;;;;;;;82.65;34.90;;;;;;;-142.57;100.00;55967.75;4974630;28;20069;-90
2023/12/10 01:46:11;;;;;;;89.90;34.92;;;;;;;-142.57;100.00;55955.63;4974435;28;20031;-87
2023/12/10 01:48:39;;;;;;;87.55;35.50;;;;;;;-142.57;100.00;55959.66;4974560;28;20027;-88
2023/12/10 01:51:08;;;;;;;81.60;34.05;;;;;;;-142.57;100.00;55965.72;4973458;28;20525;-88
2023/12/10 01:53:34;;;;;;;88.40;35.00;;;;;;;-142.57;100.00;55951.59;4974243;28;20042;-84
2023/12/10 01:55:59;;;;;;;86.70;33.90;;;;;;;-142.57;100.00;55981.88;4974066;28;20034;-89
2023/12/10 01:58:26;;;;;;;78.18;32.22;;;;;;;-142.57;100.00;55947.53;4974244;28;20038;-88
2023/12/10 02:00:52;;;;;;;78.78;33.20;;;;;;;-142.57;100.00;55963.72;4974161;28;20038;-88
2023/12/10 02:03:18;;;;;;;75.13;31.98;;;;;;;-142.57;100.00;56000.06;4974757;28;20034;-87
2023/12/10 02:05:43;;;;;;;77.90;32.58;;;;;;;-142.57;100.00;55931.38;4957425;28;20106;-87
2023/12/10 02:08:09;;;;;;;86.13;34.70;;;;;;;-142.57;100.00;55933.41;4974099;28;20043;-88
2023/12/10 02:10:34;;;;;;;86.20;32.72;;;;;;;-142.57;100.00;56000.06;4974351;28;20459;-86
2023/12/10 02:13:04;;;;;;;84.38;33.13;;;;;;;-142.57;100.00;55955.63;4974209;28;20038;-85
2023/12/10 02:15:31;;;;;;;80.80;32.20;;;;;;;-142.57;100.00;55996.03;4974200;28;20054;-86
2023/12/10 02:17:56;;;;;;;83.47;33.03;;;;;;;-142.57;100.00;55959.66;4974071;28;20114;-87
2023/12/10 02:20:22;;;;;;;84.03;32.65;;;;;;;-142.57;100.00;55949.56;4974972;28;20039;-86
2023/12/10 02:23:17;;;;;;;78.40;33.78;;;;;;;-142.57;100.00;55979.88;4974172;28;20034;-88
2023/12/10 02:25:43;;;;;;;78.57;32.97;;;;;;;-142.57;100.00;55971.78;4974825;28;20034;-89
2023/12/10 02:28:10;;;;;;;78.43;32.13;;;;;;;-142.57;100.00;55953.59;4981647;28;20035;-84
2023/12/10 02:30:36;;;;;;;68.28;30.90;;;;;;;-142.57;100.00;55953.59;4981374;28;20063;-86
2023/12/10 02:33:02;;;;;;;65.13;30.05;;;;;;;-142.57;100.00;55961.69;4974302;28;20594;-86
2023/12/10 02:35:28;;;;;;;61.63;28.70;;;;;;;-142.57;100.00;55961.69;4973926;28;20044;-83
2023/12/10 02:37:54;;;;;;;60.00;28.67;;;;;;;-142.57;100.00;55909.16;4973978;28;20039;-85
2023/12/10 02:40:20;;;;;;;55.85;27.23;;;;;;;-142.57;100.00;55955.63;4974071;28;20411;-87
2023/12/10 02:42:46;;;;;;;59.15;27.92;;;;;;;-142.57;100.00;55939.47;4972581;28;20143;-80
2023/12/10 02:45:13;;;;;;;57.20;28.10;;;;;;;-142.57;100.00;55951.59;4973774;28;20504;-79
2023/12/10 02:47:40;;;;;;;59.33;27.30;;;;;;;-142.57;100.00;55923.28;4972270;28;20031;-81
2023/12/10 02:50:07;;;;;;;56.90;26.38;;;;;;;-142.57;100.00;55975.84;4973159;28;20073;-80
2023/12/10 02:52:38;;;;;;;49.58;25.33;;;;;;;-142.57;100.00;55973.81;4973832;28;20043;-80
2023/12/10 02:55:10;;;;;;;37.87;19.20;;;;;;;-142.57;100.00;55953.59;4974148;28;20067;-79
2023/12/10 02:57:36;;;;;;;46.35;24.02;;;;;;;-142.57;100.00;55931.38;4973618;28;20034;-79
2023/12/10 03:00:03;;;;;;;44.35;24.33;;;;;;;-142.57;100.00;55939.47;4974180;28;20047;-82
2023/12/10 03:02:28;;;;;;;50.10;25.08;;;;;;;-142.57;100.00;55969.78;4974811;28;20397;-82
2023/12/10 03:04:54;;;;;;;45.70;24.25;;;;;;;-142.57;100.00;55967.75;4962622;28;20030;-89
2023/12/10 03:07:19;;;;;;;46.45;23.13;;;;;;;-142.57;100.00;55939.47;4979204;28;20569;-87
2023/12/10 03:09:45;;;;;;;40.80;23.05;;;;;;;-142.57;100.00;55941.47;4977950;28;20046;-89
2023/12/10 03:12:10;;;;;;;39.90;22.38;;;;;;;-142.57;100.00;55925.31;4977523;28;20053;-86
2023/12/10 03:14:36;;;;;;;43.35;23.67;;;;;;;-142.57;100.00;55959.66;4977528;28;20114;-86
2023/12/10 03:17:02;;;;;;;41.50;22.30;;;;;;;-142.57;100.00;55943.50;4977465;28;20031;-89
2023/12/10 03:19:27;;;;;;;39.40;22.58;;;;;;;-142.57;100.00;55923.28;4977483;28;20098;-86
2023/12/10 03:21:53;;;;;;;45.38;23.35;;;;;;;-142.57;100.00;55935.41;4977464;28;20027;-90
2023/12/10 03:24:18;;;;;;;39.53;23.15;;;;;;;-142.57;100.00;55927.34;4976694;28;20130;-88
2023/12/10 03:26:46;;;;;;;42.60;22.70;;;;;;;-142.57;100.00;55931.38;4976577;28;20027;-80
2023/12/10 03:29:12;;;;;;;45.53;24.42;;;;;;;-142.57;100.00;55951.59;4976887;28;20050;-82
2023/12/10 03:31:37;;;;;;;41.40;22.35;;;;;;;-142.57;100.00;55931.38;4976595;28;20038;-81
2023/12/10 03:34:03;;;;;;;42.67;23.00;;;;;;;-142.57;100.00;55923.28;4977700;28;20027;-88
2023/12/10 03:36:28;;;;;;;40.35;23.35;;;;;;;-142.57;100.00;55935.41;4977309;28;20367;-89
2023/12/10 03:38:54;;;;;;;43.75;23.33;;;;;;;-142.57;100.00;55963.72;4976922;28;20042;-85
2023/12/10 03:41:19;;;;;;;43.22;24.33;;;;;;;-142.57;100.00;55931.38;4976421;28;20039;-88
2023/12/10 03:43:45;;;;;;;45.40;24.35;;;;;;;-142.57;100.00;55886.91;4976657;28;20042;-84
2023/12/10 03:46:10;;;;;;;42.08;23.30;;;;;;;-142.57;100.00;55951.59;4976315;28;20090;-85
2023/12/10 03:48:36;;;;;;;42.15;23.08;;;;;;;-142.57;100.00;55923.28;4976893;28;20437;-88
2023/12/10 03:51:01;;;;;;;43.38;22.85;;;;;;;-142.57;100.00;55917.22;4976390;28;20039;-86
2023/12/10 03:53:27;;;;;;;45.67;24.30;;;;;;;-142.57;100.00;55892.97;4976359;28;20113;-87
2023/12/10 03:55:55;;;;;;;50.35;24.98;;;;;;;-142.57;100.00;55899.03;4976660;28;20482;-87
2023/12/10 03:58:21;;;;;;;46.95;24.20;;;;;;;-142.57;100.00;55989.97;4976325;28;20031;-87
2023/12/10 04:00:46;;;;;;;49.70;25.45;;;;;;;-142.57;100.00;55951.59;4958570;28;20068;-86
2023/12/10 04:03:12;;;;;;;53.88;26.33;;;;;;;-142.57;100.00;55985.94;4976235;28;20829;-87
2023/12/10 04:05:37;;;;;;;54.92;26.10;;;;;;;-142.57;100.00;55919.25;4958879;28;20051;-83
2023/12/10 04:08:03;;;;;;;52.75;26.90;;;;;;;-142.57;100.00;55939.47;4975994;28;20034;-80
2023/12/10 04:10:29;;;;;;;50.65;25.45;;;;;;;-142.57;100.00;55967.75;4976324;28;20486;-85
2023/12/10 04:12:54;;;;;;;46.45;25.42;;;;;;;-142.57;100.00;55949.56;4958493;28;20109;-86
2023/12/10 04:15:20;;;;;;;49.67;25.30;;;;;;;-142.57;100.00;55965.72;4974629;28;20034;-83
2023/12/10 04:17:45;;;;;;;47.67;25.05;;;;;;;-142.57;100.00;55919.25;4976311;28;20564;-84
2023/12/10 04:20:11;;;;;;;47.60;24.63;;;;;;;-142.57;100.00;55951.59;4975899;28;20038;-87
2023/12/10 04:22:36;;;;;;;45.58;24.00;;;;;;;-142.57;100.00;55915.22;4958677;28;20050;-83
2023/12/10 04:25:02;;;;;;;45.15;23.92;;;;;;;-142.57;100.00;55892.97;4958798;28;20039;-80
2023/12/10 04:27:28;;;;;;;47.05;23.52;;;;;;;-142.57;100.00;55909.16;4976264;28;20069;-82
2023/12/10 04:29:53;;;;;;;48.75;24.73;;;;;;;-142.57;100.00;55878.84;4958649;28;20202;-81
2023/12/10 04:32:19;;;;;;;51.63;25.63;;;;;;;-142.57;100.00;55901.06;4976302;28;20034;-83
2023/12/10 04:34:45;;;;;;;51.10;25.05;;;;;;;-142.57;100.00;55905.09;4979119;28;20383;-83
2023/12/10 04:37:10;;;;;;;51.53;24.27;;;;;;;-142.57;100.00;55895.00;4986276;28;20031;-87
2023/12/10 04:39:36;;;;;;;50.83;24.20;;;;;;;-142.57;100.00;55911.16;4994241;28;20102;-84
2023/12/10 04:42:02;;;;;;;52.33;25.10;;;;;;;-142.57;100.00;55892.97;4981594;28;20042;-84
2023/12/10 04:44:28;;;;;;;52.72;24.40;;;;;;;-142.57;100.00;55868.72;4976332;28;20113;-87
2023/12/10 04:46:53;;;;;;;49.53;23.73;;;;;;;-142.57;100.00;55854.59;4975887;28;20031;-80
2023/12/10 04:49:19;;;;;;;48.67;23.67;;;;;;;-142.57;100.00;55874.78;4977676;28;20039;-83
2023/12/10 04:51:44;;;;;;;50.22;22.77;;;;;;;-142.57;100.00;55888.94;4977691;28;20126;-84
2023/12/10 04:54:10;;;;;;;49.97;24.17;;;;;;;-142.57;100.00;55862.69;4975666;28;20042;-83
2023/12/10 04:56:35;;;;;;;51.05;25.10;;;;;;;-142.57;100.00;55856.63;4975429;28;20076;-88
2023/12/10 04:59:01;;;;;;;50.63;24.63;;;;;;;-142.57;100.00;55846.50;4958184;28;20465;-89
2023/12/10 05:01:26;;;;;;;50.63;23.42;;;;;;;-142.57;100.00;55822.25;4978062;28;20038;-86
2023/12/10 05:03:52;;;;;;;44.20;23.08;;;;;;;-142.57;100.00;55826.31;4976974;28;20126;-87
2023/12/10 05:06:17;;;;;;;44.40;22.52;;;;;;;-142.57;100.00;55838.44;4975809;28;20039;-83
2023/12/10 05:08:43;;;;;;;40.58;22.13;;;;;;;-142.57;100.00;55777.81;4975360;28;20157;-83
2023/12/10 05:11:08;;;;;;;39.50;21.23;;;;;;;-142.57;100.00;55854.59;4975451;28;20121;-83
2023/12/10 05:13:35;;;;;;;35.92;19.95;;;;;;;-142.57;100.00;55844.50;4975353;28;20490;-82
2023/12/10 05:16:01;;;;;;;33.80;19.67;;;;;;;-142.57;100.00;55826.31;4975113;28;20451;-82
2023/12/10 05:18:27;;;;;;;35.38;20.70;;;;;;;-142.57;100.00;55848.53;4975396;28;20379;-80
2023/12/10 05:20:53;;;;;;;34.78;19.67;;;;;;;-142.57;100.00;55791.94;4975658;28;20031;-88
2023/12/10 05:23:19;;;;;;;27.50;17.30;;;;;;;-142.57;100.00;55874.78;4975157;28;20027;-82
2023/12/10 05:25:44;;;;;;;27.13;16.08;;;;;;;-142.57;100.00;55777.81;4975034;28;20492;-81
2023/12/10 05:28:10;;;;;;;23.90;14.52;;;;;;;-142.57;100.00;55812.16;4975002;28;20105;-81
2023/12/10 05:30:35;;;;;;;21.55;12.95;;;;;;;-142.57;100.00;55830.34;4957544;28;20033;-80
2023/12/10 05:33:01;;;;;;;17.48;11.10;;;;;;;-142.57;100.00;55856.63;4957314;28;20035;-79
2023/12/10 05:35:26;;;;;;;16.33;10.82;;;;;;;-142.57;100.00;55765.69;4974952;28;20039;-79
2023/12/10 05:37:52;;;;;;;14.75;10.48;;;;;;;-142.57;100.00;55759.63;4957564;28;20042;-79
2023/12/10 05:40:18;;;;;;;16.52;11.57;;;;;;;-142.57;100.00;55745.47;4974590;28;20504;-79
2023/12/10 05:42:43;;;;;;;16.83;9.85;;;;;;;-142.57;100.00;55812.16;4974892;28;20402;-80
2023/12/10 05:45:09;;;;;;;16.30;9.30;;;;;;;-142.57;100.00;55729.31;4974594;28;20085;-81
2023/12/10 05:47:35;;;;;;;14.63;9.13;;;;;;;-142.57;100.00;55733.34;4974800;28;20034;-81
2023/12/10 05:50:00;;;;;;;12.98;8.30;;;;;;;-142.57;100.00;55676.78;4974740;28;20034;-86
2023/12/10 05:52:26;;;;;;;11.88;7.97;;;;;;;-142.57;100.00;55725.28;4974790;28;20023;-80
2023/12/10 05:54:51;;;;;;;11.82;8.02;;;;;;;-142.57;100.00;55711.13;4975078;28;20038;-79
2023/12/10 05:57:17;;;;;;;11.32;7.78;;;;;;;-142.57;100.00;55711.13;4978241;28;20035;-79
2023/12/10 05:59:43;;;;;;;12.02;8.18;;;;;;;-142.57;100.00;55701.03;4961293;28;20042;-80
2023/12/10 06:02:08;;;;;;;11.52;7.78;;;;;;;-142.57;100.00;55721.22;4974273;28;20042;-81
2023/12/10 06:04:34;;;;;;;12.63;8.43;;;;;;;-142.57;100.00;55666.69;4957512;28;20031;-84
2023/12/10 06:07:00;;;;;;;10.88;7.63;;;;;;;-142.57;100.00;55761.66;4975337;28;20113;-78
2023/12/10 06:09:25;;;;;;;11.48;7.88;;;;;;;-142.57;100.00;55753.56;4974581;28;20114;-81
2023/12/10 06:11:53;;;;;;;13.98;8.00;;;;;;;-142.57;100.00;55721.22;4974179;28;20042;-79
2023/12/10 06:14:19;;;;;;;11.68;7.72;;;;;;;-142.57;100.00;55680.81;4974214;28;20035;-81
2023/12/10 06:16:44;;;;;;;10.23;7.35;;;;;;;-142.57;100.00;55703.06;4975253;28;20124;-87
2023/12/10 06:19:10;;;;;;;10.52;6.65;;;;;;;-142.57;100.00;55697.00;4977387;28;20050;-79
2023/12/10 06:21:37;;;;;;;11.68;7.30;;;;;;;-142.57;100.00;55672.75;4976310;28;20489;-89
2023/12/10 06:24:04;;;;;;;10.63;7.05;;;;;;;-142.57;100.00;55688.91;4975401;28;20066;-79
2023/12/10 06:26:30;;;;;;;9.98;7.25;;;;;;;-142.57;100.00;55684.88;4957225;28;20042;-86
2023/12/10 06:28:55;;;;;;;12.35;7.75;;;;;;;-142.57;100.00;55699.00;4963299;28;20047;-81
2023/12/10 06:31:21;;;;;;;11.23;7.72;;;;;;;-142.57;100.00;55664.66;4952849;28;20031;-82
2023/12/10 06:33:47;;;;;;;11.52;8.07;;;;;;;-142.57;100.00;55656.56;4956712;28;20078;-87
2023/12/10 06:36:12;;;;;;;12.57;8.13;;;;;;;-142.57;100.00;55701.03;4957056;28;20039;-88
2023/12/10 06:38:38;;;;;;;13.82;8.40;;;;;;;-142.57;100.00;55680.81;4957226;28;20047;-90
2023/12/10 06:41:06;;;;;;;12.82;8.27;;;;;;;-142.57;100.00;55668.69;4963926;28;20042;-88
2023/12/10 06:43:32;;;;;;;13.30;9.05;;;;;;;-142.57;100.00;55684.88;4962591;28;20055;-85
2023/12/10 06:45:58;;;;;;;11.80;8.23;;;;;;;-142.57;100.00;55703.06;4955516;28;20035;-83
2023/12/10 06:48:25;;;;;;;14.00;8.13;;;;;;;-142.57;100.00;55725.28;4962832;28;20039;-92
2023/12/10 06:50:51;;;;;;;13.00;8.48;;;;;;;-142.57;100.00;55729.31;4948467;29;20512;-88
2023/12/10 06:53:23;;;;;;;13.25;8.25;;;;;;;-142.57;100.00;55749.53;4967098;28;20015;-89
2023/12/10 06:55:49;;;;;;;11.60;7.88;;;;;;;-142.57;100.00;55767.72;4953663;29;20047;-81
2023/12/10 06:58:15;;;;;;;13.50;8.90;;;;;;;-142.57;100.00;55731.34;4955184;28;20107;-89
2023/12/10 07:00:47;;;;;;;11.95;8.35;;;;;;;-142.57;100.00;55703.06;4974677;28;20050;-87
2023/12/10 07:03:12;;;;;;;15.30;8.98;;;;;;;-142.57;100.00;55725.28;4976003;28;20051;-86
2023/12/10 07:05:38;;;;;;;13.52;9.25;;;;;;;-142.57;100.00;55765.69;4974618;28;20043;-87
2023/12/10 07:08:06;;;;;;;13.40;9.02;;;;;;;-142.57;100.00;55785.91;4971203;28;20099;-90
2023/12/10 07:10:44;;;;;;;12.10;7.93;;;;;;;-142.57;100.00;55826.31;4970505;28;20031;-85
2023/12/10 07:13:10;;;;;;;12.77;8.13;;;;;;;-142.57;100.00;55959.66;4968371;29;20048;-84
2023/12/10 07:15:35;;;;;;;13.95;8.43;;;;;;;-142.57;100.00;55897.03;4968810;28;20410;-87
2023/12/10 07:18:05;;;;;;;15.40;9.82;;;;;;;-142.57;100.00;55895.00;4968914;28;20035;-83
2023/12/10 07:20:30;;;;;;;16.67;9.45;;;;;;;-142.57;100.00;55882.88;4969166;28;20024;-85
2023/12/10 07:22:56;;;;;;;13.85;8.23;;;;;;;-142.57;100.00;55886.91;4969467;28;20054;-85
2023/12/10 07:25:30;;;;;;;15.80;8.63;;;;;;;-142.57;100.00;55967.75;4979793;28;20039;-86
2023/12/10 07:28:02;;;;;;;11.18;6.78;;;;;;;-142.57;100.00;55935.41;4975413;28;20059;-81
2023/12/10 07:30:38;;;;;;;12.68;8.00;;;;;;;-142.57;100.00;55919.25;5011423;23;20102;-82
2023/12/10 07:33:05;;;;;;;12.27;7.97;;;;;;;-142.57;100.00;55992.00;4986508;28;20047;-84
2023/12/10 07:35:30;;;;;;;13.00;7.82;;;;;;;-142.57;100.00;56157.69;4980079;28;20034;-79
2023/12/10 07:37:59;;;;;;;14.07;7.57;;;;;;;-142.57;100.00;56262.78;4963104;28;20059;-82
2023/12/10 07:40:50;;;;;;;12.48;7.78;;;;;;;-142.57;100.00;56185.97;4967991;28;20046;-79
2023/12/10 07:43:16;;;;;;;19.73;8.15;;;;;;;-142.57;100.00;56147.59;4985848;28;20035;-82
2023/12/10 07:45:42;;;;;;;15.05;8.50;;;;;;;-142.57;100.00;56188.00;4983432;28;20019;-81
2023/12/10 07:48:10;;;;;;;15.45;8.82;;;;;;;-142.57;100.00;56137.50;4972306;28;20046;-87
2023/12/10 07:50:39;;;;;;;14.57;9.18;;;;;;;-142.57;100.00;56133.44;4991125;28;20030;-83
2023/12/10 07:53:52;;;;;;;16.00;9.43;;;;;;;-142.57;100.00;56060.69;4987554;23;20073;-83
2023/12/10 07:56:17;;;;;;;18.55;10.35;;;;;;;-142.57;100.00;56012.19;4989949;28;20078;-81
2023/12/10 07:58:43;;;;;;;16.92;10.80;;;;;;;-142.57;100.00;55957.66;4990454;28;20027;-84
2023/12/10 08:01:11;;;;;;;21.02;11.88;;;;;;;-142.57;100.00;55969.78;4982462;28;20077;-81
2023/12/10 08:03:37;;;;;;;19.95;11.02;;;;;;;-142.57;100.00;55971.78;4970490;28;20047;-81
2023/12/10 08:06:08;;;;;;;21.35;11.93;;;;;;;-142.57;100.00;55955.63;4992196;28;20034;-83
2023/12/10 08:08:39;;;;;;;23.83;13.07;;;;;;;-142.57;100.00;55899.03;4960465;28;20062;-86
2023/12/10 08:11:13;;;;;;;25.65;13.95;;;;;;;-142.57;100.00;55862.69;4995832;23;20047;-85
2023/12/10 08:13:55;;;;;;;26.88;15.10;;;;;;;-142.57;100.00;55886.91;4973975;28;20042;-84
2023/12/10 08:16:41;;;;;;;26.60;15.30;;;;;;;-142.57;100.00;55866.72;4986406;28;20035;-85
2023/12/10 08:19:18;;;;;;;28.60;15.38;;;;;;;-142.57;100.00;55884.91;4983941;28;20073;-83
2023/12/10 08:21:44;;;;;;;24.75;14.73;;;;;;;-142.57;100.00;55826.31;4969822;28;20057;-84
2023/12/10 08:24:12;;;;;;;27.58;15.05;;;;;;;-142.57;100.00;55895.00;4981870;28;20054;-84
2023/12/10 08:26:55;;;;;;;33.70;15.80;;;;;;;-142.57;100.00;55915.22;4965587;28;20034;-86
2023/12/10 08:29:33;;;;;;;27.98;15.32;;;;;;;-142.57;100.00;55886.91;4982545;28;20043;-85
2023/12/10 08:32:06;;;;;;;27.90;15.95;;;;;;;-142.57;100.00;55862.69;4981823;28;20063;-85
2023/12/10 08:34:34;;;;;;;27.38;15.70;;;;;;;-142.57;100.00;55876.81;4996489;28;20066;-83
2023/12/10 08:37:09;;;;;;;28.50;15.18;;;;;;;-142.57;100.00;55872.78;4996069;28;20051;-84
2023/12/10 08:39:40;;;;;;;28.27;15.50;;;;;;;-142.57;100.00;55923.28;4998645;28;20048;-83
2023/12/10 08:42:32;;;;;;;29.38;16.75;;;;;;;-142.57;100.00;55901.06;4999717;28;20042;-86
2023/12/10 08:45:41;;;;;;;32.58;18.73;;;;;;;-142.57;100.00;55890.97;5000134;28;20079;-84
2023/12/10 08:48:10;;;;;;;38.83;18.92;;;;;;;-142.57;100.00;55919.25;4998652;28;20045;-84
2023/12/10 08:50:49;;;;;;;34.78;18.13;;;;;;;-142.57;100.00;55915.22;4996408;28;20061;-84
2023/12/10 08:53:35;;;;;;;31.15;17.52;;;;;;;-142.57;100.00;55903.09;5001105;23;20168;-85
2023/12/10 08:59:21;;;;;;;31.73;16.85;;;;;;;-142.57;100.00;55911.16;4550074;26;20047;-84
2023/12/10 09:01:52;;;;;;;30.55;17.50;;;;;;;-142.57;100.00;55923.28;4974156;29;20050;-85
2023/12/10 09:04:27;;;;;;;33.83;18.63;;;;;;;-142.57;100.00;55915.22;4961561;29;20042;-84
2023/12/10 09:07:36;;;;;;;30.05;16.70;;;;;;;-142.57;100.00;55931.38;4995629;23;20110;-83
2023/12/10 09:10:12;;;;;;;33.10;18.25;;;;;;;-142.57;100.00;55862.69;4968739;28;20385;-84
2023/12/10 09:12:42;;;;;;;32.17;18.05;;;;;;;-142.57;100.00;55915.22;4964353;28;20035;-85
2023/12/10 09:15:39;;;;;;;31.02;17.20;;;;;;;-142.57;100.00;55923.28;4978886;28;20111;-84
2023/12/10 09:18:10;;;;;;;;;;;;;;;-142.57;100.00;55907.13;4969359;28;20140;-84
2023/12/10 09:20:36;;;;;;;28.13;17.00;;;;;;;-142.57;100.00;55931.38;4980446;28;19925;-84
2023/12/10 09:23:05;;;;;;;31.17;17.75;;;;;;;-142.57;100.00;55892.97;4979209;28;20034;-84
2023/12/10 09:25:42;;;;;;;28.35;16.52;;;;;;;-142.57;100.00;55949.56;4963110;28;20059;-85
2023/12/10 09:28:35;;;;;;;33.00;17.30;;;;;;;-142.57;100.00;55959.66;4980898;28;20402;-86
2023/12/10 09:31:25;;;;;;;30.05;16.55;;;;;;;-142.57;100.00;55955.63;4975471;28;20043;-85
2023/12/10 09:34:07;;;;;;;30.48;16.50;;;;;;;-142.57;100.00;55996.03;4947530;28;20046;-86
2023/12/10 09:37:24;;;;;;;32.13;17.92;;;;;;;-142.57;100.00;56016.25;4987573;28;20070;-84
2023/12/10 09:39:54;;;;;;;28.33;17.02;;;;;;;-142.57;100.00;56006.13;5001133;23;20046;-86
2023/12/10 09:42:33;;;;;;;26.05;15.63;;;;;;;-142.57;100.00;56044.53;4995152;28;20023;-83
2023/12/10 09:45:09;;;;;;;28.73;16.85;;;;;;;-142.57;100.00;56006.13;4990890;28;20062;-87
2023/12/10 09:48:06;;;;;;;28.48;16.30;;;;;;;-142.57;100.00;56004.13;4984346;28;20047;-85
2023/12/10 09:50:56;;;;;;;26.63;15.32;;;;;;;-142.57;100.00;55996.03;4992240;28;20059;-87
2023/12/10 09:53:28;;;;;;;27.58;16.58;;;;;;;-142.57;100.00;55992.00;5006452;23;20051;-83
2023/12/10 09:56:22;;;;;;;28.05;16.15;;;;;;;-142.57;100.00;56042.50;4990161;28;20183;-84
2023/12/10 09:58:54;;;;;;;25.60;15.48;;;;;;;-142.57;100.00;56024.31;4991997;28;20059;-83
2023/12/10 10:01:20;;;;;;;28.63;15.82;;;;;;;-142.57;100.00;56070.81;4976130;23;20054;-86
2023/12/10 10:03:52;;;;;;;26.40;15.95;;;;;;;-142.57;100.00;56070.81;4967552;28;20027;-84
2023/12/10 10:06:26;;;;;;;25.85;15.10;;;;;;;-142.57;100.00;56078.88;4970255;28;20486;-83
2023/12/10 10:08:59;;;;;;;25.95;15.50;;;;;;;-142.57;100.00;56111.22;4968186;28;20078;-83
2023/12/10 10:11:27;;;;;;;25.67;15.90;;;;;;;-142.57;100.00;56064.75;4966453;28;20097;-88
2023/12/10 10:13:54;;;;;;;25.45;15.40;;;;;;;-142.57;100.00;56105.16;4966898;28;20450;-85
2023/12/10 10:16:25;;;;;;;33.33;16.83;;;;;;;-142.57;100.00;56153.66;5066254;23;20078;-83
2023/12/10 10:18:53;;;;;;;27.25;15.20;;;;;;;-142.57;100.00;56101.13;4967853;28;20039;-85
2023/12/10 10:21:19;;;;;;;28.20;15.45;;;;;;;-142.57;100.00;56147.59;4945993;28;20089;-81
2023/12/10 10:23:45;;;;;;;32.83;13.88;;;;;;;-142.57;100.00;56181.94;4962915;28;20146;-80
2023/12/10 10:26:12;;;;;;;19.85;12.88;;;;;;;-142.57;100.00;56135.47;4980720;28;20042;-84
2023/12/10 10:28:37;;;;;;;23.98;14.10;;;;;;;-142.57;100.00;56149.63;4978227;28;20034;-85
2023/12/10 10:31:11;;;;;;;22.67;14.60;;;;;;;-142.57;100.00;56226.41;4966175;28;20461;-80
2023/12/10 10:33:36;;;;;;;22.23;13.63;;;;;;;-142.57;100.00;56254.69;4974525;28;20105;-84
2023/12/10 10:36:03;;;;;;;22.45;13.50;;;;;;;-142.57;100.00;56200.13;4975556;28;20030;-82
2023/12/10 10:38:29;;;;;;;23.40;13.43;;;;;;;-142.57;100.00;56159.72;4975318;28;20039;-82
2023/12/10 10:40:58;;;;;;;23.73;13.43;;;;;;;-142.57;100.00;56214.28;4957271;28;20050;-78
2023/12/10 10:43:25;;;;;;;34.45;12.15;;;;;;;-142.57;100.00;56214.28;4973554;28;20624;-82
2023/12/10 10:45:52;;;;;;;22.67;11.93;;;;;;;-142.57;100.00;56216.28;4955136;28;20089;-84
2023/12/10 10:48:25;;;;;;;19.42;11.45;;;;;;;-142.57;100.00;56242.56;4978583;28;20059;-86
2023/12/10 10:50:51;;;;;;;;;;;;;;;-142.57;100.00;56244.59;4978316;28;20494;-78
2023/12/10 10:53:18;;;;;;;14.95;9.60;;;;;;;-142.57;100.00;56287.03;4957151;28;19918;-84
2023/12/10 10:55:48;;;;;;;14.55;9.63;;;;;;;-142.57;100.00;56291.06;4978091;28;20037;-81
2023/12/10 10:58:30;;;;;;;14.13;8.73;;;;;;;-142.57;100.00;56315.31;4977789;28;20064;-84
2023/12/10 11:00:58;;;;;;;14.00;9.18;;;;;;;-142.57;100.00;56337.53;4981123;28;20070;-83
2023/12/10 11:03:27;;;;;;;12.60;8.75;;;;;;;-142.57;100.00;56305.22;4969919;28;20039;-79
2023/12/10 11:06:09;;;;;;;16.83;9.13;;;;;;;-142.57;100.00;56335.53;4982447;28;20092;-87